createdAt,value
2023-01-19T05:02:36.940Z,0.98
2023-01-19T05:05:04.285Z,0.60
2023-01-19T05:07:31.088Z,0.60
2023-01-19T05:09:57.725Z,0.57
2023-01-19T05:12:24.231Z,0.95
2023-01-19T05:14:50.799Z,1.08
2023-01-19T05:17:17.357Z,1.02
2023-01-19T05:19:43.928Z,0.70
2023-01-19T05:22:10.704Z,0.85
2023-01-19T05:24:37.253Z,0.98
2023-01-19T05:27:03.948Z,0.90
2023-01-19T05:29:30.540Z,0.90
2023-01-19T05:31:58.150Z,1.10
2023-01-19T05:34:24.723Z,1.25
2023-01-19T05:36:51.557Z,0.82
2023-01-19T05:39:18.235Z,1.40
2023-01-19T05:41:45.582Z,1.58
2023-01-19T05:44:12.876Z,0.90
2023-01-19T05:46:40.377Z,0.82
2023-01-19T05:49:07.683Z,0.60
2023-01-19T05:51:37.984Z,1.10
2023-01-19T05:54:05.607Z,0.88
2023-01-19T05:56:32.943Z,0.93
2023-01-19T05:59:00.526Z,1.30
2023-01-19T06:01:27.518Z,0.70
2023-01-19T06:03:54.320Z,0.88
2023-01-19T06:06:21.010Z,0.90
2023-01-19T06:08:47.599Z,0.87
2023-01-19T06:11:14.105Z,0.70
2023-01-19T06:13:42.039Z,1.38
2023-01-19T06:16:09.317Z,1.48
2023-01-19T06:18:36.043Z,1.27
2023-01-19T06:21:07.578Z,1.50
2023-01-19T06:23:35.600Z,1.15
2023-01-19T06:26:02.465Z,1.63
2023-01-19T06:28:29.191Z,1.90
2023-01-19T06:30:56.689Z,2.30
2023-01-19T06:33:24.351Z,2.00
2023-01-19T06:35:51.907Z,2.45
2023-01-19T06:38:19.450Z,2.90
2023-01-19T06:40:52.548Z,3.08
2023-01-19T06:43:20.423Z,3.00
2023-01-19T06:45:47.338Z,3.57
2023-01-19T06:48:14.371Z,3.63
2023-01-19T06:50:40.917Z,5.55
2023-01-19T06:53:07.477Z,4.97
2023-01-19T06:55:36.506Z,5.60
2023-01-19T06:58:03.382Z,5.20
2023-01-19T07:00:30.356Z,6.35
2023-01-19T07:02:56.982Z,6.60
2023-01-19T07:05:23.766Z,7.03
2023-01-19T07:07:55.227Z,6.93
2023-01-19T07:10:22.702Z,7.17
2023-01-19T07:12:49.284Z,6.15
2023-01-19T07:15:17.824Z,7.35
2023-01-19T07:17:44.568Z,6.47
2023-01-19T07:20:14.458Z,5.80
2023-01-19T07:22:42.114Z,5.20
2023-01-19T07:25:09.282Z,4.20
2023-01-19T07:27:35.884Z,4.95
2023-01-19T07:30:02.525Z,5.10
2023-01-19T07:32:29.225Z,4.47
2023-01-19T07:34:55.945Z,4.07
2023-01-19T07:37:22.727Z,4.25
2023-01-19T07:39:49.232Z,3.10
2023-01-19T07:42:15.926Z,2.08
2023-01-19T07:44:42.466Z,1.40
2023-01-19T07:47:12.531Z,1.50
2023-01-19T07:49:39.657Z,0.55
2023-01-19T07:52:06.360Z,1.20
2023-01-19T07:54:33.283Z,1.65
2023-01-19T07:57:00.985Z,2.17
2023-01-19T07:59:30.246Z,1.33
2023-01-19T08:02:10.950Z,1.58
2023-01-19T08:04:37.545Z,1.85
2023-01-19T08:07:04.163Z,1.27
2023-01-19T08:09:30.716Z,1.70
2023-01-19T08:11:57.735Z,1.42
2023-01-19T08:14:24.327Z,1.90
2023-01-19T08:16:50.921Z,1.88
2023-01-19T08:19:19.283Z,2.15
2023-01-19T08:21:47.141Z,1.73
2023-01-19T08:24:22.922Z,1.75
2023-01-19T08:26:49.863Z,1.90
2023-01-19T08:29:16.502Z,1.90
2023-01-19T08:31:43.888Z,2.10
2023-01-19T08:34:10.565Z,2.30
2023-01-19T08:36:37.088Z,1.83
2023-01-19T08:39:03.786Z,2.15
2023-01-19T08:41:30.358Z,2.20
2023-01-19T08:43:56.947Z,2.20
2023-01-19T08:46:23.588Z,3.90
2023-01-19T08:48:50.439Z,2.70
2023-01-19T08:51:17.357Z,1.70
2023-01-19T08:53:44.078Z,2.00
2023-01-19T08:56:12.650Z,2.10
2023-01-19T08:58:40.391Z,2.22
2023-01-19T09:01:08.989Z,1.75
2023-01-19T09:03:36.649Z,2.17
2023-01-19T09:06:07.541Z,2.00
2023-01-19T09:08:34.355Z,1.90
2023-01-19T09:11:01.235Z,1.93
2023-01-19T09:13:27.915Z,1.50
2023-01-19T09:15:54.612Z,1.77
2023-01-19T09:18:22.780Z,1.88
2023-01-19T09:20:50.714Z,1.58
2023-01-19T09:23:20.207Z,2.10
2023-01-19T09:25:47.348Z,2.42
2023-01-19T09:28:15.604Z,2.10
2023-01-19T09:30:43.539Z,2.10
2023-01-19T09:33:12.735Z,3.40
2023-01-19T09:35:39.956Z,2.53
2023-01-19T09:38:10.671Z,2.70
2023-01-19T09:40:44.483Z,2.17
2023-01-19T09:43:14.138Z,2.60
2023-01-19T09:45:52.535Z,2.40
2023-01-19T09:48:22.069Z,2.00
2023-01-19T09:50:49.172Z,2.05
2023-01-19T09:53:39.061Z,2.92
2023-01-19T09:56:10.782Z,2.28
2023-01-19T09:58:37.391Z,2.40
2023-01-19T10:01:26.733Z,2.23
2023-01-19T10:04:22.371Z,2.42
2023-01-19T10:06:49.593Z,2.58
2023-01-19T10:09:30.537Z,2.65
2023-01-19T10:12:17.936Z,2.65
2023-01-19T10:15:01.610Z,2.37
2023-01-19T10:17:49.828Z,2.17
2023-01-19T10:20:42.125Z,1.80
2023-01-19T10:23:33.244Z,2.25
2023-01-19T10:26:07.948Z,1.77
2023-01-19T10:28:36.908Z,2.13
2023-01-19T10:31:06.291Z,2.25
2023-01-19T10:33:34.508Z,2.40
2023-01-19T10:36:17.056Z,2.13
2023-01-19T10:38:44.047Z,1.80
2023-01-19T10:41:42.728Z,2.00
2023-01-19T10:44:10.902Z,1.52
2023-01-19T10:46:49.029Z,2.10
2023-01-19T10:49:38.703Z,2.10
2023-01-19T10:52:07.292Z,2.35
2023-01-19T10:54:37.259Z,2.20
2023-01-19T10:57:07.569Z,2.05
2023-01-19T10:59:38.886Z,2.15
2023-01-19T11:02:44.449Z,2.10
2023-01-19T11:05:32.548Z,2.08
2023-01-19T11:07:59.412Z,2.37
2023-01-19T11:10:28.325Z,2.20
2023-01-19T11:13:16.039Z,2.63
2023-01-19T11:16:22.870Z,1.20
2023-01-19T11:18:53.529Z,1.33
2023-01-19T11:21:25.995Z,1.23
2023-01-19T11:24:05.499Z,0.80
2023-01-19T11:26:45.303Z,0.50
2023-01-19T11:29:18.726Z,1.00
2023-01-19T11:31:45.904Z,1.20
2023-01-19T11:34:32.867Z,0.70
2023-01-19T11:37:02.394Z,1.08
2023-01-19T11:39:31.265Z,0.98
2023-01-19T11:42:03.696Z,1.15
2023-01-19T11:44:36.567Z,1.00
2023-01-19T11:47:06.299Z,1.13
2023-01-19T11:49:56.983Z,0.80
2023-01-19T11:52:51.064Z,1.25
2023-01-19T11:55:22.138Z,1.05
2023-01-19T11:57:52.826Z,1.52
2023-01-19T12:00:35.643Z,1.23
2023-01-19T12:03:16.937Z,1.15
2023-01-19T12:05:52.779Z,0.90
2023-01-19T12:08:25.324Z,0.65
2023-01-19T12:10:54.200Z,0.80
2023-01-19T12:13:23.515Z,0.70
2023-01-19T12:16:05.740Z,1.20
2023-01-19T12:18:46.056Z,1.00
2023-01-19T12:21:12.750Z,1.20
2023-01-19T12:24:03.563Z,1.75
2023-01-19T12:26:46.851Z,2.10
2023-01-19T12:29:18.252Z,1.38
2023-01-19T12:31:44.869Z,1.00
2023-01-19T12:34:25.065Z,1.17
2023-01-19T12:36:52.561Z,1.23
2023-01-19T12:39:23.046Z,1.13
2023-01-19T12:42:11.584Z,1.20
2023-01-19T12:44:38.318Z,1.05
2023-01-19T12:47:10.719Z,0.88
2023-01-19T12:49:44.925Z,1.08
2023-01-19T12:52:33.970Z,1.60
2023-01-19T12:55:12.827Z,1.25
2023-01-19T12:57:58.477Z,1.90
2023-01-19T13:00:25.026Z,1.23
2023-01-19T13:02:52.863Z,1.00
2023-01-19T13:05:33.400Z,1.40
2023-01-19T13:08:03.222Z,0.90
2023-01-19T13:11:10.194Z,0.80
2023-01-19T13:14:04.684Z,1.06
2023-01-19T13:16:31.298Z,0.90
2023-01-19T13:19:02.743Z,0.90
2023-01-19T13:21:39.795Z,1.10
2023-01-19T13:24:10.931Z,0.70
2023-01-19T13:26:40.355Z,0.60
2023-01-19T13:29:33.083Z,0.80
2023-01-19T13:32:05.079Z,1.45
2023-01-19T13:34:41.954Z,1.35
2023-01-19T13:37:18.551Z,1.67
2023-01-19T13:39:50.130Z,0.90
2023-01-19T13:42:30.727Z,0.83
2023-01-19T13:45:05.533Z,0.65
2023-01-19T13:47:48.321Z,0.57
2023-01-19T13:50:28.170Z,0.60
2023-01-19T13:52:59.624Z,0.63
2023-01-19T13:55:34.844Z,0.70
2023-01-19T13:58:01.595Z,1.00
2023-01-19T14:00:30.792Z,0.88
2023-01-19T14:03:13.381Z,1.10
2023-01-19T14:05:41.870Z,1.70
2023-01-19T14:08:08.532Z,2.22
2023-01-19T14:10:36.780Z,1.10
2023-01-19T14:13:06.730Z,1.90
2023-01-19T14:15:34.808Z,1.95
2023-01-19T14:18:10.067Z,1.30
2023-01-19T14:20:37.173Z,1.30
2023-01-19T14:23:04.970Z,0.90
2023-01-19T14:25:34.057Z,0.77
2023-01-19T14:28:39.374Z,0.60
2023-01-19T14:31:24.086Z,0.40
2023-01-19T14:33:53.092Z,0.60
2023-01-19T14:36:39.377Z,0.70
2023-01-19T14:39:14.221Z,0.90
2023-01-19T14:41:48.159Z,0.63
2023-01-19T14:44:41.067Z,0.80
2023-01-19T14:47:26.191Z,1.00
2023-01-19T14:49:56.141Z,0.80
2023-01-19T14:52:34.578Z,0.60
2023-01-19T14:55:03.848Z,0.50
2023-01-19T14:57:30.450Z,0.73
2023-01-19T14:59:57.121Z,0.90
2023-01-19T15:02:23.958Z,0.60
2023-01-19T15:04:55.209Z,0.68
2023-01-19T15:07:23.745Z,0.60
2023-01-19T15:09:50.699Z,1.05
2023-01-19T15:12:18.645Z,1.02
2023-01-19T15:14:45.821Z,1.30
2023-01-19T15:17:27.490Z,1.00
2023-01-19T15:19:55.388Z,0.75
2023-01-19T15:22:25.109Z,1.27
2023-01-19T15:24:51.702Z,1.02
2023-01-19T15:27:18.327Z,3.93
2023-01-19T15:29:46.098Z,2.05
2023-01-19T15:32:14.202Z,1.50
2023-01-19T15:34:41.727Z,1.48
2023-01-19T15:37:08.799Z,2.00
2023-01-19T15:39:35.445Z,4.87
2023-01-19T15:42:02.158Z,1.58
2023-01-19T15:44:29.824Z,0.90
2023-01-19T15:46:57.420Z,0.70
2023-01-19T15:49:24.038Z,0.98
2023-01-19T15:51:50.580Z,1.50
2023-01-19T15:54:18.431Z,1.58
2023-01-19T15:56:45.056Z,1.48
2023-01-19T15:59:11.651Z,1.60
2023-01-19T16:01:39.900Z,3.58
2023-01-19T16:04:07.974Z,4.50
2023-01-19T16:06:34.694Z,1.92
2023-01-19T16:09:01.542Z,1.38
2023-01-19T16:11:33.633Z,1.40
2023-01-19T16:14:00.860Z,1.10
2023-01-19T16:16:28.474Z,1.30
2023-01-19T16:18:56.611Z,1.17
2023-01-19T16:21:23.883Z,1.50
2023-01-19T16:23:50.635Z,1.40
2023-01-19T16:26:29.938Z,1.60
2023-01-19T16:28:58.352Z,2.00
2023-01-19T16:31:25.162Z,1.40
2023-01-19T16:33:52.088Z,1.20
2023-01-19T16:36:30.902Z,1.60
2023-01-19T16:39:02.707Z,1.40
2023-01-19T16:41:29.720Z,3.00
2023-01-19T16:43:57.672Z,2.78
2023-01-19T16:46:30.503Z,2.10
2023-01-19T16:49:05.018Z,1.60
2023-01-19T16:51:32.628Z,2.60
2023-01-19T16:53:59.368Z,2.00
2023-01-19T16:56:25.884Z,2.42
2023-01-19T16:58:56.528Z,3.03
2023-01-19T17:01:24.502Z,2.90
2023-01-19T17:03:51.628Z,4.07
2023-01-19T17:06:20.372Z,3.00
2023-01-19T17:08:47.494Z,5.85
2023-01-19T17:11:20.838Z,8.55
2023-01-19T17:13:54.503Z,10.98
2023-01-19T17:16:22.355Z,11.63
2023-01-19T17:18:49.261Z,12.80
2023-01-19T17:21:17.980Z,13.20
2023-01-19T17:23:46.397Z,15.77
2023-01-19T17:26:13.235Z,15.73
2023-01-19T17:28:40.297Z,16.67
2023-01-19T17:31:20.277Z,17.00
2023-01-19T17:33:48.668Z,17.80
2023-01-19T17:36:21.098Z,17.92
2023-01-19T17:38:48.259Z,18.35
2023-01-19T17:41:15.668Z,19.58
2023-01-19T17:43:42.555Z,18.80
2023-01-19T17:46:09.701Z,19.20
2023-01-19T17:48:36.288Z,19.00
2023-01-19T17:51:19.120Z,20.08
2023-01-19T17:53:52.032Z,18.65
2023-01-19T17:56:28.385Z,18.53
2023-01-19T17:58:58.738Z,3.70
2023-01-19T18:01:31.121Z,0.60
2023-01-19T18:03:58.296Z,1.20
2023-01-19T18:06:25.026Z,0.65
2023-01-19T18:08:52.613Z,0.70
2023-01-19T18:11:20.651Z,0.55
2023-01-19T18:13:48.667Z,0.57
2023-01-19T18:16:18.580Z,3.88
2023-01-19T18:18:45.359Z,2.42
2023-01-19T18:21:14.514Z,2.43
2023-01-19T18:23:43.580Z,2.10
2023-01-19T18:26:15.643Z,1.98
2023-01-19T18:28:42.195Z,2.90
2023-01-19T18:31:13.004Z,3.05
2023-01-19T18:33:40.055Z,5.40
2023-01-19T18:36:07.404Z,4.13
2023-01-19T18:38:34.810Z,3.13
2023-01-19T18:41:06.754Z,6.90
2023-01-19T18:43:33.576Z,8.40
2023-01-19T18:46:00.325Z,3.93
2023-01-19T18:48:26.854Z,1.70
2023-01-19T18:50:54.030Z,5.35
2023-01-19T18:53:20.981Z,9.00
2023-01-19T18:55:55.988Z,13.18
2023-01-19T18:58:24.596Z,16.40
2023-01-19T19:00:51.233Z,18.70
2023-01-19T19:03:18.105Z,21.05
2023-01-19T19:05:44.818Z,23.23
2023-01-19T19:08:11.688Z,22.10
2023-01-19T19:10:41.030Z,19.33
2023-01-19T19:13:09.856Z,23.83
2023-01-19T19:15:36.376Z,30.10
2023-01-19T19:18:03.200Z,26.25
2023-01-19T19:20:29.783Z,29.00
2023-01-19T19:22:56.434Z,23.23
2023-01-19T19:25:23.234Z,21.85
2023-01-19T19:27:52.999Z,24.15
2023-01-19T19:30:20.805Z,25.38
2023-01-19T19:32:56.728Z,24.52
2023-01-19T19:35:23.812Z,14.83
2023-01-19T19:37:51.531Z,13.85
2023-01-19T19:40:18.224Z,9.93
2023-01-19T19:42:44.812Z,14.07
2023-01-19T19:45:12.026Z,21.33
2023-01-19T19:47:38.593Z,23.20
2023-01-19T19:50:05.414Z,23.70
2023-01-19T19:52:32.126Z,22.10
2023-01-19T19:54:58.734Z,21.83
2023-01-19T19:57:25.417Z,21.40
2023-01-19T19:59:51.929Z,21.57
2023-01-19T20:02:18.521Z,20.65
2023-01-19T20:04:45.309Z,20.23
2023-01-19T20:07:12.006Z,19.88
2023-01-19T20:09:38.940Z,20.38
2023-01-19T20:12:05.859Z,19.77
2023-01-19T20:14:32.393Z,20.35
2023-01-19T20:16:59.092Z,23.50
2023-01-19T20:19:25.624Z,19.30
2023-01-19T20:21:52.288Z,16.58
2023-01-19T20:24:21.578Z,12.53
2023-01-19T20:26:51.656Z,8.25
2023-01-19T20:29:19.229Z,6.22
2023-01-19T20:31:51.873Z,5.70
2023-01-19T20:34:20.812Z,4.95
2023-01-19T20:36:49.699Z,3.37
2023-01-19T20:39:17.639Z,4.55
2023-01-19T20:41:45.133Z,3.85
2023-01-19T20:44:18.844Z,3.50
2023-01-19T20:46:46.093Z,3.25
2023-01-19T20:49:12.966Z,5.07
2023-01-19T20:51:43.436Z,6.85
2023-01-19T20:54:12.283Z,6.68
2023-01-19T20:56:41.100Z,4.68
2023-01-19T20:59:09.291Z,4.70
2023-01-19T21:01:36.831Z,3.83
2023-01-19T21:04:03.653Z,2.70
2023-01-19T21:06:30.358Z,3.20
2023-01-19T21:08:57.617Z,3.38
2023-01-19T21:11:25.896Z,3.20
2023-01-19T21:13:56.042Z,3.33
2023-01-19T21:16:25.642Z,4.80
2023-01-19T21:18:52.933Z,5.60
2023-01-19T21:21:29.933Z,5.88
2023-01-19T21:23:59.622Z,4.60
2023-01-19T21:26:26.270Z,3.73
2023-01-19T21:28:52.911Z,5.00
2023-01-19T21:31:22.603Z,6.03
2023-01-19T21:33:53.383Z,6.30
2023-01-19T21:36:21.152Z,5.93
2023-01-19T21:38:47.666Z,4.87
2023-01-19T21:41:16.326Z,4.45
2023-01-19T21:43:43.291Z,4.13
2023-01-19T21:46:14.422Z,2.47
2023-01-19T21:48:42.150Z,2.00
2023-01-19T21:51:08.843Z,1.80
2023-01-19T21:53:35.573Z,1.98
2023-01-19T21:56:02.144Z,1.80
2023-01-19T21:58:28.697Z,1.63
2023-01-19T22:01:03.660Z,1.70
2023-01-19T22:03:31.084Z,1.30
2023-01-19T22:06:03.875Z,1.20
2023-01-19T22:08:30.434Z,1.40
2023-01-19T22:10:57.009Z,1.75
2023-01-19T22:13:23.553Z,1.80
2023-01-19T22:15:50.083Z,2.17
2023-01-19T22:18:16.597Z,2.13
2023-01-19T22:20:43.176Z,2.80
2023-01-19T22:23:10.271Z,2.60
2023-01-19T22:25:36.827Z,3.70
2023-01-19T22:28:03.445Z,4.43
2023-01-19T22:30:30.077Z,4.88
2023-01-19T22:32:56.695Z,5.70
2023-01-19T22:35:23.303Z,7.03
2023-01-19T22:37:49.913Z,7.45
2023-01-19T22:40:16.901Z,7.83
2023-01-19T22:42:47.261Z,9.57
2023-01-19T22:45:15.342Z,10.80
2023-01-19T22:47:42.182Z,9.65
2023-01-19T22:50:09.315Z,9.73
2023-01-19T22:52:35.863Z,9.43
2023-01-19T22:55:02.404Z,10.07
2023-01-19T22:57:34.312Z,11.02
